sensor_id;sensor_type;location;lat;lon;timestamp;temperature;humidity
16999;DHT22;10211;49.476;11.010;2022-11-20T00:01:20;0.50;99.90
16999;DHT22;10211;49.476;11.010;2022-11-20T00:03:48;0.60;99.90
16999;DHT22;10211;49.476;11.010;2022-11-20T00:06:16;0.50;99.90
16999;DHT22;10211;49.476;11.010;2022-11-20T00:08:45;0.60;99.90
16999;DHT22;10211;49.476;11.010;2022-11-20T00:11:14;0.60;99.90
16999;DHT22;10211;49.476;11.010;2022-11-20T00:13:41;0.60;99.90
16999;DHT22;10211;49.476;11.010;2022-11-20T00:16:10;0.60;99.90
16999;DHT22;10211;49.476;11.010;2022-11-20T00:18:39;0.60;99.90
16999;DHT22;10211;49.476;11.010;2022-11-20T00:21:10;0.60;99.90
16999;DHT22;10211;49.476;11.010;2022-11-20T00:23:37;0.60;99.90
16999;DHT22;10211;49.476;11.010;2022-11-20T00:26:05;0.70;99.90
16999;DHT22;10211;49.476;11.010;2022-11-20T00:28:32;0.70;99.90
16999;DHT22;10211;49.476;11.010;2022-11-20T00:31:03;0.60;99.90
16999;DHT22;10211;49.476;11.010;2022-11-20T00:33:30;0.60;99.90
16999;DHT22;10211;49.476;11.010;2022-11-20T00:36:05;0.60;99.90
16999;DHT22;10211;49.476;11.010;2022-11-20T00:38:32;0.70;99.90
16999;DHT22;10211;49.476;11.010;2022-11-20T00:41:01;0.70;99.90
16999;DHT22;10211;49.476;11.010;2022-11-20T00:43:28;0.70;99.90
16999;DHT22;10211;49.476;11.010;2022-11-20T00:45:57;0.70;99.90
16999;DHT22;10211;49.476;11.010;2022-11-20T00:48:24;0.70;99.90
16999;DHT22;10211;49.476;11.010;2022-11-20T00:50:50;0.80;99.90
16999;DHT22;10211;49.476;11.010;2022-11-20T00:53:19;0.80;99.90
16999;DHT22;10211;49.476;11.010;2022-11-20T00:55:53;0.80;99.90
16999;DHT22;10211;49.476;11.010;2022-11-20T00:58:21;0.80;99.90
16999;DHT22;10211;49.476;11.010;2022-11-20T01:00:49;0.80;99.90
16999;DHT22;10211;49.476;11.010;2022-11-20T01:03:16;0.80;99.90
16999;DHT22;10211;49.476;11.010;2022-11-20T01:05:43;0.80;99.90
16999;DHT22;10211;49.476;11.010;2022-11-20T01:08:10;0.90;99.90
16999;DHT22;10211;49.476;11.010;2022-11-20T01:10:38;0.90;99.90
16999;DHT22;10211;49.476;11.010;2022-11-20T01:13:05;0.90;99.90
16999;DHT22;10211;49.476;11.010;2022-11-20T01:15:49;0.90;99.90
16999;DHT22;10211;49.476;11.010;2022-11-20T01:18:16;1.00;99.90
16999;DHT22;10211;49.476;11.010;2022-11-20T01:20:43;0.90;99.90
16999;DHT22;10211;49.476;11.010;2022-11-20T01:23:10;0.90;99.90
16999;DHT22;10211;49.476;11.010;2022-11-20T01:25:36;1.00;99.90
16999;DHT22;10211;49.476;11.010;2022-11-20T01:28:05;1.00;99.90
16999;DHT22;10211;49.476;11.010;2022-11-20T01:30:31;1.00;99.90
16999;DHT22;10211;49.476;11.010;2022-11-20T01:32:58;1.00;99.90
16999;DHT22;10211;49.476;11.010;2022-11-20T01:35:25;0.90;99.90
16999;DHT22;10211;49.476;11.010;2022-11-20T01:37:52;1.00;99.90
16999;DHT22;10211;49.476;11.010;2022-11-20T01:40:18;1.00;99.90
16999;DHT22;10211;49.476;11.010;2022-11-20T01:42:53;1.00;99.90
16999;DHT22;10211;49.476;11.010;2022-11-20T01:45:56;1.00;99.90
16999;DHT22;10211;49.476;11.010;2022-11-20T01:48:26;1.00;99.90
16999;DHT22;10211;49.476;11.010;2022-11-20T01:50:55;1.10;99.90
16999;DHT22;10211;49.476;11.010;2022-11-20T01:53:25;1.10;99.90
16999;DHT22;10211;49.476;11.010;2022-11-20T01:55:58;1.10;99.90
16999;DHT22;10211;49.476;11.010;2022-11-20T01:58:30;1.10;99.90
16999;DHT22;10211;49.476;11.010;2022-11-20T02:00:59;1.10;99.90
16999;DHT22;10211;49.476;11.010;2022-11-20T02:03:26;1.10;99.90
16999;DHT22;10211;49.476;11.010;2022-11-20T02:05:59;1.10;99.90
16999;DHT22;10211;49.476;11.010;2022-11-20T02:08:28;1.10;99.90
16999;DHT22;10211;49.476;11.010;2022-11-20T02:10:55;1.10;99.90
16999;DHT22;10211;49.476;11.010;2022-11-20T02:13:22;1.10;99.90
16999;DHT22;10211;49.476;11.010;2022-11-20T02:16:21;1.10;99.90
16999;DHT22;10211;49.476;11.010;2022-11-20T02:18:49;1.10;99.90
16999;DHT22;10211;49.476;11.010;2022-11-20T02:21:28;1.10;99.90
16999;DHT22;10211;49.476;11.010;2022-11-20T02:24:09;1.10;99.90
16999;DHT22;10211;49.476;11.010;2022-11-20T02:26:46;1.10;99.90
16999;DHT22;10211;49.476;11.010;2022-11-20T02:29:15;1.10;99.90
16999;DHT22;10211;49.476;11.010;2022-11-20T02:31:43;1.10;99.90
16999;DHT22;10211;49.476;11.010;2022-11-20T02:34:10;1.10;99.90
16999;DHT22;10211;49.476;11.010;2022-11-20T02:36:39;1.20;99.90
16999;DHT22;10211;49.476;11.010;2022-11-20T02:39:09;1.20;99.90
16999;DHT22;10211;49.476;11.010;2022-11-20T02:41:38;1.20;99.90
16999;DHT22;10211;49.476;11.010;2022-11-20T02:44:05;1.10;99.90
16999;DHT22;10211;49.476;11.010;2022-11-20T02:46:33;1.10;99.90
16999;DHT22;10211;49.476;11.010;2022-11-20T02:49:01;1.10;99.90
16999;DHT22;10211;49.476;11.010;2022-11-20T02:51:28;1.20;99.90
16999;DHT22;10211;49.476;11.010;2022-11-20T02:53:54;1.20;99.90
16999;DHT22;10211;49.476;11.010;2022-11-20T02:56:22;1.20;99.90
16999;DHT22;10211;49.476;11.010;2022-11-20T02:58:49;1.20;99.90
16999;DHT22;10211;49.476;11.010;2022-11-20T03:01:16;1.20;99.90
16999;DHT22;10211;49.476;11.010;2022-11-20T03:03:43;1.10;99.90
16999;DHT22;10211;49.476;11.010;2022-11-20T03:06:10;1.10;99.90
16999;DHT22;10211;49.476;11.010;2022-11-20T03:08:38;1.10;99.90
16999;DHT22;10211;49.476;11.010;2022-11-20T03:11:06;1.10;99.90
16999;DHT22;10211;49.476;11.010;2022-11-20T03:13:35;1.10;99.90
16999;DHT22;10211;49.476;11.010;2022-11-20T03:16:11;1.10;99.90
16999;DHT22;10211;49.476;11.010;2022-11-20T03:18:38;1.10;99.90
16999;DHT22;10211;49.476;11.010;2022-11-20T03:21:06;1.10;99.90
16999;DHT22;10211;49.476;11.010;2022-11-20T03:23:33;1.10;99.90
16999;DHT22;10211;49.476;11.010;2022-11-20T03:26:11;1.10;99.90
16999;DHT22;10211;49.476;11.010;2022-11-20T03:28:41;1.10;99.90
16999;DHT22;10211;49.476;11.010;2022-11-20T03:31:09;1.10;99.90
16999;DHT22;10211;49.476;11.010;2022-11-20T03:33:36;1.10;99.90
16999;DHT22;10211;49.476;11.010;2022-11-20T03:36:04;1.10;99.90
16999;DHT22;10211;49.476;11.010;2022-11-20T03:38:31;1.00;99.90
16999;DHT22;10211;49.476;11.010;2022-11-20T03:40:59;1.00;99.90
16999;DHT22;10211;49.476;11.010;2022-11-20T03:43:28;1.00;99.90
16999;DHT22;10211;49.476;11.010;2022-11-20T03:45:58;1.00;99.90
16999;DHT22;10211;49.476;11.010;2022-11-20T03:48:25;1.00;99.90
16999;DHT22;10211;49.476;11.010;2022-11-20T03:50:53;1.00;99.90
16999;DHT22;10211;49.476;11.010;2022-11-20T03:53:20;1.00;99.90
16999;DHT22;10211;49.476;11.010;2022-11-20T03:55:50;0.90;99.90
16999;DHT22;10211;49.476;11.010;2022-11-20T03:58:17;0.90;99.90
16999;DHT22;10211;49.476;11.010;2022-11-20T04:00:44;0.90;99.90
16999;DHT22;10211;49.476;11.010;2022-11-20T04:03:12;0.90;99.90
16999;DHT22;10211;49.476;11.010;2022-11-20T04:05:39;0.90;99.90
16999;DHT22;10211;49.476;11.010;2022-11-20T04:08:06;0.90;99.90
16999;DHT22;10211;49.476;11.010;2022-11-20T04:10:33;0.90;99.90
16999;DHT22;10211;49.476;11.010;2022-11-20T04:13:00;0.90;99.90
16999;DHT22;10211;49.476;11.010;2022-11-20T04:15:27;0.90;99.90
16999;DHT22;10211;49.476;11.010;2022-11-20T04:17:54;0.90;99.90
16999;DHT22;10211;49.476;11.010;2022-11-20T04:20:22;0.90;99.90
16999;DHT22;10211;49.476;11.010;2022-11-20T04:22:48;1.00;99.90
16999;DHT22;10211;49.476;11.010;2022-11-20T04:25:15;1.00;99.90
16999;DHT22;10211;49.476;11.010;2022-11-20T04:27:42;1.00;99.90
16999;DHT22;10211;49.476;11.010;2022-11-20T04:30:10;1.00;99.90
16999;DHT22;10211;49.476;11.010;2022-11-20T04:32:37;1.00;99.90
16999;DHT22;10211;49.476;11.010;2022-11-20T04:35:04;1.00;99.90
16999;DHT22;10211;49.476;11.010;2022-11-20T04:37:32;0.90;99.90
16999;DHT22;10211;49.476;11.010;2022-11-20T04:39:59;0.90;99.90
16999;DHT22;10211;49.476;11.010;2022-11-20T04:42:27;0.90;99.90
16999;DHT22;10211;49.476;11.010;2022-11-20T04:44:58;0.90;99.90
16999;DHT22;10211;49.476;11.010;2022-11-20T04:47:25;1.00;99.90
16999;DHT22;10211;49.476;11.010;2022-11-20T04:49:52;1.00;99.90
16999;DHT22;10211;49.476;11.010;2022-11-20T04:52:18;1.00;99.90
16999;DHT22;10211;49.476;11.010;2022-11-20T04:54:47;1.00;99.90
16999;DHT22;10211;49.476;11.010;2022-11-20T04:57:14;1.10;99.90
16999;DHT22;10211;49.476;11.010;2022-11-20T04:59:41;1.00;99.90
16999;DHT22;10211;49.476;11.010;2022-11-20T05:02:09;1.00;99.90
16999;DHT22;10211;49.476;11.010;2022-11-20T05:04:36;1.10;99.90
16999;DHT22;10211;49.476;11.010;2022-11-20T05:07:03;1.10;99.90
16999;DHT22;10211;49.476;11.010;2022-11-20T05:09:30;1.10;99.90
16999;DHT22;10211;49.476;11.010;2022-11-20T05:11:58;1.10;99.90
16999;DHT22;10211;49.476;11.010;2022-11-20T05:14:25;1.10;99.90
16999;DHT22;10211;49.476;11.010;2022-11-20T05:16:52;1.10;99.90
16999;DHT22;10211;49.476;11.010;2022-11-20T05:19:19;1.10;99.90
16999;DHT22;10211;49.476;11.010;2022-11-20T05:21:45;1.10;99.90
16999;DHT22;10211;49.476;11.010;2022-11-20T05:24:12;1.00;99.90
16999;DHT22;10211;49.476;11.010;2022-11-20T05:26:39;1.00;99.90
16999;DHT22;10211;49.476;11.010;2022-11-20T05:29:10;1.00;99.90
16999;DHT22;10211;49.476;11.010;2022-11-20T05:31:36;1.00;99.90
16999;DHT22;10211;49.476;11.010;2022-11-20T05:34:05;1.00;99.90
16999;DHT22;10211;49.476;11.010;2022-11-20T05:36:32;1.10;99.90
16999;DHT22;10211;49.476;11.010;2022-11-20T05:38:59;1.10;99.90
16999;DHT22;10211;49.476;11.010;2022-11-20T05:41:26;1.10;99.90
16999;DHT22;10211;49.476;11.010;2022-11-20T05:43:53;1.10;99.90
16999;DHT22;10211;49.476;11.010;2022-11-20T05:46:21;1.20;99.90
16999;DHT22;10211;49.476;11.010;2022-11-20T05:48:48;1.20;99.90
16999;DHT22;10211;49.476;11.010;2022-11-20T05:51:17;1.20;99.90
16999;DHT22;10211;49.476;11.010;2022-11-20T05:53:45;1.20;99.90
16999;DHT22;10211;49.476;11.010;2022-11-20T05:56:14;1.10;99.90
16999;DHT22;10211;49.476;11.010;2022-11-20T05:58:41;1.10;99.90
16999;DHT22;10211;49.476;11.010;2022-11-20T06:01:10;1.20;99.90
16999;DHT22;10211;49.476;11.010;2022-11-20T06:03:39;1.20;99.90
16999;DHT22;10211;49.476;11.010;2022-11-20T06:06:08;1.20;99.90
16999;DHT22;10211;49.476;11.010;2022-11-20T06:08:35;1.20;99.90
16999;DHT22;10211;49.476;11.010;2022-11-20T06:11:06;1.20;99.90
16999;DHT22;10211;49.476;11.010;2022-11-20T06:13:34;1.20;99.90
16999;DHT22;10211;49.476;11.010;2022-11-20T06:16:01;1.20;99.90
16999;DHT22;10211;49.476;11.010;2022-11-20T06:18:29;1.20;99.90
16999;DHT22;10211;49.476;11.010;2022-11-20T06:21:03;1.30;99.90
16999;DHT22;10211;49.476;11.010;2022-11-20T06:23:31;1.30;99.90
16999;DHT22;10211;49.476;11.010;2022-11-20T06:26:01;1.30;99.90
16999;DHT22;10211;49.476;11.010;2022-11-20T06:28:28;1.30;99.90
16999;DHT22;10211;49.476;11.010;2022-11-20T06:30:55;1.40;99.90
16999;DHT22;10211;49.476;11.010;2022-11-20T06:33:22;1.40;99.90
16999;DHT22;10211;49.476;11.010;2022-11-20T06:35:49;1.40;99.90
16999;DHT22;10211;49.476;11.010;2022-11-20T06:38:17;1.40;99.90
16999;DHT22;10211;49.476;11.010;2022-11-20T06:40:44;1.40;99.90
16999;DHT22;10211;49.476;11.010;2022-11-20T06:43:10;1.40;99.90
16999;DHT22;10211;49.476;11.010;2022-11-20T06:45:37;1.40;99.90
16999;DHT22;10211;49.476;11.010;2022-11-20T06:48:04;1.40;99.90
16999;DHT22;10211;49.476;11.010;2022-11-20T06:50:31;1.40;99.90
16999;DHT22;10211;49.476;11.010;2022-11-20T06:53:01;1.40;99.90
16999;DHT22;10211;49.476;11.010;2022-11-20T06:55:30;1.40;99.90
16999;DHT22;10211;49.476;11.010;2022-11-20T06:57:59;1.40;99.90
16999;DHT22;10211;49.476;11.010;2022-11-20T07:00:25;1.40;99.90
16999;DHT22;10211;49.476;11.010;2022-11-20T07:02:52;1.40;99.90
16999;DHT22;10211;49.476;11.010;2022-11-20T07:05:19;1.50;99.90
16999;DHT22;10211;49.476;11.010;2022-11-20T07:07:46;1.50;99.90
16999;DHT22;10211;49.476;11.010;2022-11-20T07:10:12;1.50;99.90
16999;DHT22;10211;49.476;11.010;2022-11-20T07:12:41;1.50;99.90
16999;DHT22;10211;49.476;11.010;2022-11-20T07:15:08;1.50;99.90
16999;DHT22;10211;49.476;11.010;2022-11-20T07:17:34;1.40;99.90
16999;DHT22;10211;49.476;11.010;2022-11-20T07:20:01;1.50;99.90
16999;DHT22;10211;49.476;11.010;2022-11-20T07:22:29;1.40;99.90
16999;DHT22;10211;49.476;11.010;2022-11-20T07:24:55;1.40;99.90
16999;DHT22;10211;49.476;11.010;2022-11-20T07:27:22;1.50;99.90
16999;DHT22;10211;49.476;11.010;2022-11-20T07:29:50;1.50;99.90
16999;DHT22;10211;49.476;11.010;2022-11-20T07:32:17;1.50;99.90
16999;DHT22;10211;49.476;11.010;2022-11-20T07:34:44;1.50;99.90
16999;DHT22;10211;49.476;11.010;2022-11-20T07:37:11;1.50;99.90
16999;DHT22;10211;49.476;11.010;2022-11-20T07:39:38;1.50;99.90
16999;DHT22;10211;49.476;11.010;2022-11-20T07:42:06;1.60;99.90
16999;DHT22;10211;49.476;11.010;2022-11-20T07:44:33;1.70;99.90
16999;DHT22;10211;49.476;11.010;2022-11-20T07:47:01;1.70;99.90
16999;DHT22;10211;49.476;11.010;2022-11-20T07:49:28;1.80;99.90
16999;DHT22;10211;49.476;11.010;2022-11-20T07:51:55;1.80;99.90
16999;DHT22;10211;49.476;11.010;2022-11-20T07:54:22;2.00;99.90
16999;DHT22;10211;49.476;11.010;2022-11-20T07:56:49;2.10;99.90
16999;DHT22;10211;49.476;11.010;2022-11-20T07:59:16;2.20;99.90
16999;DHT22;10211;49.476;11.010;2022-11-20T08:01:43;2.30;99.90
16999;DHT22;10211;49.476;11.010;2022-11-20T08:04:12;2.30;99.90
16999;DHT22;10211;49.476;11.010;2022-11-20T08:06:40;2.30;99.90
16999;DHT22;10211;49.476;11.010;2022-11-20T08:09:07;2.30;99.90
16999;DHT22;10211;49.476;11.010;2022-11-20T08:11:34;2.20;99.90
16999;DHT22;10211;49.476;11.010;2022-11-20T08:14:19;2.20;99.90
16999;DHT22;10211;49.476;11.010;2022-11-20T08:16:47;2.20;99.90
16999;DHT22;10211;49.476;11.010;2022-11-20T08:19:17;2.20;99.90
16999;DHT22;10211;49.476;11.010;2022-11-20T08:21:44;2.20;99.90
16999;DHT22;10211;49.476;11.010;2022-11-20T08:24:11;2.20;99.90
16999;DHT22;10211;49.476;11.010;2022-11-20T08:26:39;2.30;99.90
16999;DHT22;10211;49.476;11.010;2022-11-20T08:29:07;2.30;99.90
16999;DHT22;10211;49.476;11.010;2022-11-20T08:31:34;2.30;99.90
16999;DHT22;10211;49.476;11.010;2022-11-20T08:34:01;2.30;99.90
16999;DHT22;10211;49.476;11.010;2022-11-20T08:36:32;2.30;99.90
16999;DHT22;10211;49.476;11.010;2022-11-20T08:39:00;2.40;99.90
16999;DHT22;10211;49.476;11.010;2022-11-20T08:41:27;2.40;99.90
16999;DHT22;10211;49.476;11.010;2022-11-20T08:43:59;2.50;99.90
16999;DHT22;10211;49.476;11.010;2022-11-20T08:46:28;2.60;99.90
16999;DHT22;10211;49.476;11.010;2022-11-20T08:48:58;2.70;99.90
16999;DHT22;10211;49.476;11.010;2022-11-20T08:51:25;2.80;99.90
16999;DHT22;10211;49.476;11.010;2022-11-20T08:53:53;2.90;99.90
16999;DHT22;10211;49.476;11.010;2022-11-20T08:56:21;2.90;99.90
16999;DHT22;10211;49.476;11.010;2022-11-20T08:58:49;2.90;99.90
16999;DHT22;10211;49.476;11.010;2022-11-20T09:01:16;3.00;99.90
16999;DHT22;10211;49.476;11.010;2022-11-20T09:03:43;3.00;99.90
16999;DHT22;10211;49.476;11.010;2022-11-20T09:06:11;3.00;99.90
16999;DHT22;10211;49.476;11.010;2022-11-20T09:08:38;3.10;99.90
16999;DHT22;10211;49.476;11.010;2022-11-20T09:11:07;3.10;99.90
16999;DHT22;10211;49.476;11.010;2022-11-20T09:13:35;3.10;99.90
16999;DHT22;10211;49.476;11.010;2022-11-20T09:16:04;3.10;99.90
16999;DHT22;10211;49.476;11.010;2022-11-20T09:18:33;3.10;99.90
16999;DHT22;10211;49.476;11.010;2022-11-20T09:21:03;3.10;99.90
16999;DHT22;10211;49.476;11.010;2022-11-20T09:23:32;3.10;99.90
16999;DHT22;10211;49.476;11.010;2022-11-20T09:26:02;3.10;99.90
16999;DHT22;10211;49.476;11.010;2022-11-20T09:28:31;3.20;99.90
16999;DHT22;10211;49.476;11.010;2022-11-20T09:30:58;3.20;99.90
16999;DHT22;10211;49.476;11.010;2022-11-20T09:33:25;3.30;99.90
16999;DHT22;10211;49.476;11.010;2022-11-20T09:35:52;3.40;99.90
16999;DHT22;10211;49.476;11.010;2022-11-20T09:38:19;3.50;99.90
16999;DHT22;10211;49.476;11.010;2022-11-20T09:40:50;3.70;99.90
16999;DHT22;10211;49.476;11.010;2022-11-20T09:43:22;3.70;99.90
16999;DHT22;10211;49.476;11.010;2022-11-20T09:46:01;3.70;99.90
16999;DHT22;10211;49.476;11.010;2022-11-20T09:48:48;3.70;99.90
16999;DHT22;10211;49.476;11.010;2022-11-20T09:51:25;3.70;99.90
16999;DHT22;10211;49.476;11.010;2022-11-20T09:54:06;3.70;99.90
16999;DHT22;10211;49.476;11.010;2022-11-20T09:56:37;3.70;99.90
16999;DHT22;10211;49.476;11.010;2022-11-20T09:59:07;3.70;99.90
16999;DHT22;10211;49.476;11.010;2022-11-20T10:01:39;3.80;99.90
16999;DHT22;10211;49.476;11.010;2022-11-20T10:04:12;3.80;99.90
16999;DHT22;10211;49.476;11.010;2022-11-20T10:06:45;3.80;99.90
16999;DHT22;10211;49.476;11.010;2022-11-20T10:09:20;3.80;99.90
16999;DHT22;10211;49.476;11.010;2022-11-20T10:11:55;3.90;99.90
16999;DHT22;10211;49.476;11.010;2022-11-20T10:14:33;3.90;99.90
16999;DHT22;10211;49.476;11.010;2022-11-20T10:17:13;4.00;99.90
16999;DHT22;10211;49.476;11.010;2022-11-20T10:20:01;4.00;99.90
16999;DHT22;10211;49.476;11.010;2022-11-20T10:22:40;4.00;99.90
16999;DHT22;10211;49.476;11.010;2022-11-20T10:25:13;4.00;99.90
16999;DHT22;10211;49.476;11.010;2022-11-20T10:30:46;4.10;99.90
16999;DHT22;10211;49.476;11.010;2022-11-20T10:33:18;4.00;99.90
16999;DHT22;10211;49.476;11.010;2022-11-20T10:35:52;3.90;99.90
16999;DHT22;10211;49.476;11.010;2022-11-20T10:38:23;3.90;99.90
16999;DHT22;10211;49.476;11.010;2022-11-20T10:40:54;3.80;99.90
16999;DHT22;10211;49.476;11.010;2022-11-20T10:43:43;3.70;99.90
16999;DHT22;10211;49.476;11.010;2022-11-20T10:46:15;3.70;99.90
16999;DHT22;10211;49.476;11.010;2022-11-20T10:48:45;3.70;99.90
16999;DHT22;10211;49.476;11.010;2022-11-20T10:51:21;3.80;99.90
16999;DHT22;10211;49.476;11.010;2022-11-20T10:53:56;3.80;99.90
16999;DHT22;10211;49.476;11.010;2022-11-20T10:56:30;3.80;99.90
16999;DHT22;10211;49.476;11.010;2022-11-20T10:59:26;3.90;99.90
16999;DHT22;10211;49.476;11.010;2022-11-20T11:01:54;4.00;99.90
16999;DHT22;10211;49.476;11.010;2022-11-20T11:04:39;4.20;99.90
16999;DHT22;10211;49.476;11.010;2022-11-20T11:07:16;4.40;99.90
16999;DHT22;10211;49.476;11.010;2022-11-20T11:09:47;4.50;99.90
16999;DHT22;10211;49.476;11.010;2022-11-20T11:12:14;4.50;99.90
16999;DHT22;10211;49.476;11.010;2022-11-20T11:14:49;4.40;99.90
16999;DHT22;10211;49.476;11.010;2022-11-20T11:17:25;4.40;99.90
16999;DHT22;10211;49.476;11.010;2022-11-20T11:20:04;4.30;99.90
16999;DHT22;10211;49.476;11.010;2022-11-20T11:22:33;4.10;99.90
16999;DHT22;10211;49.476;11.010;2022-11-20T11:25:00;3.90;99.90
16999;DHT22;10211;49.476;11.010;2022-11-20T11:27:27;3.60;99.90
16999;DHT22;10211;49.476;11.010;2022-11-20T11:30:14;3.40;99.90
16999;DHT22;10211;49.476;11.010;2022-11-20T11:32:41;3.40;99.90
16999;DHT22;10211;49.476;11.010;2022-11-20T11:35:22;3.40;99.90
16999;DHT22;10211;49.476;11.010;2022-11-20T11:37:49;3.50;99.90
16999;DHT22;10211;49.476;11.010;2022-11-20T11:40:18;3.60;99.90
16999;DHT22;10211;49.476;11.010;2022-11-20T11:42:50;3.80;99.90
16999;DHT22;10211;49.476;11.010;2022-11-20T11:45:19;4.10;99.90
16999;DHT22;10211;49.476;11.010;2022-11-20T11:47:46;4.40;99.90
16999;DHT22;10211;49.476;11.010;2022-11-20T11:50:16;4.50;99.90
16999;DHT22;10211;49.476;11.010;2022-11-20T11:52:48;4.50;99.90
16999;DHT22;10211;49.476;11.010;2022-11-20T11:55:25;4.50;99.90
16999;DHT22;10211;49.476;11.010;2022-11-20T11:57:59;4.50;99.90
16999;DHT22;10211;49.476;11.010;2022-11-20T12:00:28;4.60;99.90
16999;DHT22;10211;49.476;11.010;2022-11-20T12:03:03;4.90;99.90
16999;DHT22;10211;49.476;11.010;2022-11-20T12:05:37;5.10;99.90
16999;DHT22;10211;49.476;11.010;2022-11-20T12:08:13;5.20;99.90
16999;DHT22;10211;49.476;11.010;2022-11-20T12:10:47;5.20;99.90
16999;DHT22;10211;49.476;11.010;2022-11-20T12:13:36;5.20;99.90
16999;DHT22;10211;49.476;11.010;2022-11-20T12:16:12;5.10;99.90
16999;DHT22;10211;49.476;11.010;2022-11-20T12:18:40;5.00;99.90
16999;DHT22;10211;49.476;11.010;2022-11-20T12:21:17;4.90;99.90
16999;DHT22;10211;49.476;11.010;2022-11-20T12:23:56;4.80;99.90
16999;DHT22;10211;49.476;11.010;2022-11-20T12:26:35;4.70;99.90
16999;DHT22;10211;49.476;11.010;2022-11-20T12:29:09;4.50;99.90
16999;DHT22;10211;49.476;11.010;2022-11-20T12:31:54;4.30;99.90
16999;DHT22;10211;49.476;11.010;2022-11-20T12:34:40;4.30;99.90
16999;DHT22;10211;49.476;11.010;2022-11-20T12:37:18;4.30;99.90
16999;DHT22;10211;49.476;11.010;2022-11-20T12:39:55;4.30;99.90
16999;DHT22;10211;49.476;11.010;2022-11-20T12:46:13;4.80;99.90
16999;DHT22;10211;49.476;11.010;2022-11-20T12:48:53;5.00;99.90
16999;DHT22;10211;49.476;11.010;2022-11-20T12:51:34;5.00;99.90
16999;DHT22;10211;49.476;11.010;2022-11-20T12:57:08;4.70;99.90
16999;DHT22;10211;49.476;11.010;2022-11-20T13:02:40;4.50;99.90
16999;DHT22;10211;49.476;11.010;2022-11-20T13:05:19;4.50;99.90
16999;DHT22;10211;49.476;11.010;2022-11-20T13:07:47;4.40;99.90
16999;DHT22;10211;49.476;11.010;2022-11-20T13:10:20;4.20;99.90
16999;DHT22;10211;49.476;11.010;2022-11-20T13:12:53;4.10;99.90
16999;DHT22;10211;49.476;11.010;2022-11-20T13:15:36;4.10;99.90
16999;DHT22;10211;49.476;11.010;2022-11-20T13:18:08;4.10;99.90
16999;DHT22;10211;49.476;11.010;2022-11-20T13:20:36;4.10;99.90
16999;DHT22;10211;49.476;11.010;2022-11-20T13:23:07;4.10;99.90
16999;DHT22;10211;49.476;11.010;2022-11-20T13:25:36;4.10;99.90
16999;DHT22;10211;49.476;11.010;2022-11-20T13:28:26;4.10;99.90
16999;DHT22;10211;49.476;11.010;2022-11-20T13:30:54;4.00;99.90
16999;DHT22;10211;49.476;11.010;2022-11-20T13:33:25;4.00;99.90
16999;DHT22;10211;49.476;11.010;2022-11-20T13:35:56;4.00;99.90
16999;DHT22;10211;49.476;11.010;2022-11-20T13:38:23;4.00;99.90
16999;DHT22;10211;49.476;11.010;2022-11-20T13:40:52;4.00;99.90
16999;DHT22;10211;49.476;11.010;2022-11-20T13:43:27;4.00;99.90
16999;DHT22;10211;49.476;11.010;2022-11-20T13:45:56;4.00;99.90
16999;DHT22;10211;49.476;11.010;2022-11-20T13:48:26;4.00;99.90
16999;DHT22;10211;49.476;11.010;2022-11-20T13:51:04;4.00;99.90
16999;DHT22;10211;49.476;11.010;2022-11-20T13:56:43;3.80;99.90
16999;DHT22;10211;49.476;11.010;2022-11-20T14:02:13;3.70;99.90
16999;DHT22;10211;49.476;11.010;2022-11-20T14:04:45;3.70;99.90
16999;DHT22;10211;49.476;11.010;2022-11-20T14:07:13;3.60;99.90
16999;DHT22;10211;49.476;11.010;2022-11-20T14:09:49;3.60;99.90
16999;DHT22;10211;49.476;11.010;2022-11-20T14:12:18;3.70;99.90
16999;DHT22;10211;49.476;11.010;2022-11-20T14:14:51;3.70;99.90
16999;DHT22;10211;49.476;11.010;2022-11-20T14:17:19;3.70;99.90
16999;DHT22;10211;49.476;11.010;2022-11-20T14:19:47;3.70;99.90
16999;DHT22;10211;49.476;11.010;2022-11-20T14:22:18;3.70;99.90
16999;DHT22;10211;49.476;11.010;2022-11-20T14:24:46;3.80;99.90
16999;DHT22;10211;49.476;11.010;2022-11-20T14:27:14;3.80;99.90
16999;DHT22;10211;49.476;11.010;2022-11-20T14:29:42;3.80;99.90
16999;DHT22;10211;49.476;11.010;2022-11-20T14:32:12;3.80;99.90
16999;DHT22;10211;49.476;11.010;2022-11-20T14:34:41;3.80;99.90
16999;DHT22;10211;49.476;11.010;2022-11-20T14:37:11;3.70;99.90
16999;DHT22;10211;49.476;11.010;2022-11-20T14:39:42;3.70;99.90
16999;DHT22;10211;49.476;11.010;2022-11-20T14:42:15;3.70;99.90
16999;DHT22;10211;49.476;11.010;2022-11-20T14:44:42;3.70;99.90
16999;DHT22;10211;49.476;11.010;2022-11-20T14:47:13;3.70;99.90
16999;DHT22;10211;49.476;11.010;2022-11-20T14:49:41;3.60;99.90
16999;DHT22;10211;49.476;11.010;2022-11-20T14:52:13;3.60;99.90
16999;DHT22;10211;49.476;11.010;2022-11-20T14:54:44;3.60;99.90
16999;DHT22;10211;49.476;11.010;2022-11-20T14:57:22;3.60;99.90
16999;DHT22;10211;49.476;11.010;2022-11-20T14:59:49;3.60;99.90
16999;DHT22;10211;49.476;11.010;2022-11-20T15:02:18;3.60;99.90
16999;DHT22;10211;49.476;11.010;2022-11-20T15:04:46;3.60;99.90
16999;DHT22;10211;49.476;11.010;2022-11-20T15:07:23;3.60;99.90
16999;DHT22;10211;49.476;11.010;2022-11-20T15:10:00;3.60;99.90
16999;DHT22;10211;49.476;11.010;2022-11-20T15:12:26;3.60;99.90
16999;DHT22;10211;49.476;11.010;2022-11-20T15:14:53;3.60;99.90
16999;DHT22;10211;49.476;11.010;2022-11-20T15:17:23;3.60;99.90
16999;DHT22;10211;49.476;11.010;2022-11-20T15:19:50;3.60;99.90
16999;DHT22;10211;49.476;11.010;2022-11-20T15:22:17;3.60;99.90
16999;DHT22;10211;49.476;11.010;2022-11-20T15:24:46;3.60;99.90
16999;DHT22;10211;49.476;11.010;2022-11-20T15:27:13;3.60;99.90
16999;DHT22;10211;49.476;11.010;2022-11-20T15:29:41;3.60;99.90
16999;DHT22;10211;49.476;11.010;2022-11-20T15:32:08;3.60;99.90
16999;DHT22;10211;49.476;11.010;2022-11-20T15:34:36;3.70;99.90
16999;DHT22;10211;49.476;11.010;2022-11-20T15:37:03;3.60;99.90
16999;DHT22;10211;49.476;11.010;2022-11-20T15:39:29;3.70;99.90
16999;DHT22;10211;49.476;11.010;2022-11-20T15:41:56;3.70;99.90
16999;DHT22;10211;49.476;11.010;2022-11-20T15:44:23;3.70;99.90
16999;DHT22;10211;49.476;11.010;2022-11-20T15:46:50;3.70;99.90
16999;DHT22;10211;49.476;11.010;2022-11-20T15:49:17;3.70;99.90
16999;DHT22;10211;49.476;11.010;2022-11-20T15:51:49;3.70;99.90
16999;DHT22;10211;49.476;11.010;2022-11-20T15:54:19;3.80;99.90
16999;DHT22;10211;49.476;11.010;2022-11-20T15:56:48;3.80;99.90
16999;DHT22;10211;49.476;11.010;2022-11-20T15:59:17;3.80;99.90
16999;DHT22;10211;49.476;11.010;2022-11-20T16:01:44;3.80;99.90
16999;DHT22;10211;49.476;11.010;2022-11-20T16:04:12;3.80;99.90
16999;DHT22;10211;49.476;11.010;2022-11-20T16:06:39;3.80;99.90